sensor_id;sensor_type;location;lat;lon;timestamp;temperature;humidity
13446;DHT22;6795;51.232;3.764;2022-10-16T00:01:44;14.40;99.90
13446;DHT22;6795;51.232;3.764;2022-10-16T00:04:12;14.50;99.90
13446;DHT22;6795;51.232;3.764;2022-10-16T00:06:46;14.50;99.90
13446;DHT22;6795;51.232;3.764;2022-10-16T00:09:14;14.60;99.90
13446;DHT22;6795;51.232;3.764;2022-10-16T00:11:42;14.50;99.90
13446;DHT22;6795;51.232;3.764;2022-10-16T00:14:13;14.40;99.90
13446;DHT22;6795;51.232;3.764;2022-10-16T00:16:42;14.40;99.90
13446;DHT22;6795;51.232;3.764;2022-10-16T00:19:11;14.30;99.90
13446;DHT22;6795;51.232;3.764;2022-10-16T00:21:40;14.20;99.90
13446;DHT22;6795;51.232;3.764;2022-10-16T00:24:10;14.20;99.90
13446;DHT22;6795;51.232;3.764;2022-10-16T00:26:40;14.10;99.90
13446;DHT22;6795;51.232;3.764;2022-10-16T00:29:09;14.00;99.90
13446;DHT22;6795;51.232;3.764;2022-10-16T00:31:37;14.00;99.90
13446;DHT22;6795;51.232;3.764;2022-10-16T00:34:06;13.90;99.90
13446;DHT22;6795;51.232;3.764;2022-10-16T00:36:34;13.80;99.90
13446;DHT22;6795;51.232;3.764;2022-10-16T00:39:03;13.80;99.90
13446;DHT22;6795;51.232;3.764;2022-10-16T00:41:33;13.80;99.90
13446;DHT22;6795;51.232;3.764;2022-10-16T00:44:03;13.80;99.90
13446;DHT22;6795;51.232;3.764;2022-10-16T00:46:51;13.70;99.90
13446;DHT22;6795;51.232;3.764;2022-10-16T00:49:20;13.60;99.90
13446;DHT22;6795;51.232;3.764;2022-10-16T00:51:50;13.40;99.90
13446;DHT22;6795;51.232;3.764;2022-10-16T00:54:23;13.30;99.90
13446;DHT22;6795;51.232;3.764;2022-10-16T00:56:54;13.20;99.90
13446;DHT22;6795;51.232;3.764;2022-10-16T00:59:25;13.10;99.90
13446;DHT22;6795;51.232;3.764;2022-10-16T01:01:54;13.00;99.90
13446;DHT22;6795;51.232;3.764;2022-10-16T01:04:23;12.90;99.90
13446;DHT22;6795;51.232;3.764;2022-10-16T01:06:59;12.80;99.90
13446;DHT22;6795;51.232;3.764;2022-10-16T01:09:39;12.80;99.90
13446;DHT22;6795;51.232;3.764;2022-10-16T01:12:16;12.80;99.90
13446;DHT22;6795;51.232;3.764;2022-10-16T01:14:51;12.90;99.90
13446;DHT22;6795;51.232;3.764;2022-10-16T01:17:26;12.90;99.90
13446;DHT22;6795;51.232;3.764;2022-10-16T01:20:04;13.00;99.90
13446;DHT22;6795;51.232;3.764;2022-10-16T01:22:41;13.10;99.90
13446;DHT22;6795;51.232;3.764;2022-10-16T01:25:29;13.10;99.90
13446;DHT22;6795;51.232;3.764;2022-10-16T01:28:11;13.20;99.90
13446;DHT22;6795;51.232;3.764;2022-10-16T01:30:42;13.20;99.90
13446;DHT22;6795;51.232;3.764;2022-10-16T01:33:16;13.30;99.90
13446;DHT22;6795;51.232;3.764;2022-10-16T01:35:48;13.30;99.90
13446;DHT22;6795;51.232;3.764;2022-10-16T01:38:23;13.30;99.90
13446;DHT22;6795;51.232;3.764;2022-10-16T01:40:57;13.40;99.90
13446;DHT22;6795;51.232;3.764;2022-10-16T01:43:35;13.30;99.90
13446;DHT22;6795;51.232;3.764;2022-10-16T01:46:05;13.30;99.90
13446;DHT22;6795;51.232;3.764;2022-10-16T01:48:35;13.20;99.90
13446;DHT22;6795;51.232;3.764;2022-10-16T01:51:07;13.10;99.90
13446;DHT22;6795;51.232;3.764;2022-10-16T01:53:36;13.10;99.90
13446;DHT22;6795;51.232;3.764;2022-10-16T01:56:08;13.10;99.90
13446;DHT22;6795;51.232;3.764;2022-10-16T01:58:42;13.00;99.90
13446;DHT22;6795;51.232;3.764;2022-10-16T02:01:13;13.10;99.90
13446;DHT22;6795;51.232;3.764;2022-10-16T02:03:50;13.00;99.90
13446;DHT22;6795;51.232;3.764;2022-10-16T02:06:20;13.10;99.90
13446;DHT22;6795;51.232;3.764;2022-10-16T02:08:49;13.10;99.90
13446;DHT22;6795;51.232;3.764;2022-10-16T02:11:17;13.10;99.90
13446;DHT22;6795;51.232;3.764;2022-10-16T02:13:52;13.20;99.90
13446;DHT22;6795;51.232;3.764;2022-10-16T02:16:33;13.30;99.90
13446;DHT22;6795;51.232;3.764;2022-10-16T02:19:02;13.20;99.90
13446;DHT22;6795;51.232;3.764;2022-10-16T02:21:34;13.20;99.90
13446;DHT22;6795;51.232;3.764;2022-10-16T02:24:09;13.20;99.90
13446;DHT22;6795;51.232;3.764;2022-10-16T02:26:48;13.20;99.90
13446;DHT22;6795;51.232;3.764;2022-10-16T02:29:22;13.10;99.90
13446;DHT22;6795;51.232;3.764;2022-10-16T02:31:56;13.10;99.90
13446;DHT22;6795;51.232;3.764;2022-10-16T02:34:27;13.00;99.90
13446;DHT22;6795;51.232;3.764;2022-10-16T02:36:57;13.00;99.90
13446;DHT22;6795;51.232;3.764;2022-10-16T02:39:27;12.90;99.90
13446;DHT22;6795;51.232;3.764;2022-10-16T02:41:56;12.90;99.90
13446;DHT22;6795;51.232;3.764;2022-10-16T02:44:26;12.80;99.90
13446;DHT22;6795;51.232;3.764;2022-10-16T02:46:54;12.80;99.90
13446;DHT22;6795;51.232;3.764;2022-10-16T02:49:23;12.80;99.90
13446;DHT22;6795;51.232;3.764;2022-10-16T02:51:51;12.80;99.90
13446;DHT22;6795;51.232;3.764;2022-10-16T02:54:19;12.80;99.90
13446;DHT22;6795;51.232;3.764;2022-10-16T02:56:48;12.90;99.90
13446;DHT22;6795;51.232;3.764;2022-10-16T02:59:16;12.90;99.90
13446;DHT22;6795;51.232;3.764;2022-10-16T03:01:46;12.90;99.90
13446;DHT22;6795;51.232;3.764;2022-10-16T03:04:14;13.00;99.90
13446;DHT22;6795;51.232;3.764;2022-10-16T03:06:42;12.90;99.90
13446;DHT22;6795;51.232;3.764;2022-10-16T03:09:10;12.90;99.90
13446;DHT22;6795;51.232;3.764;2022-10-16T03:11:39;12.90;99.90
13446;DHT22;6795;51.232;3.764;2022-10-16T03:14:44;12.90;99.90
13446;DHT22;6795;51.232;3.764;2022-10-16T03:17:38;12.90;99.90
13446;DHT22;6795;51.232;3.764;2022-10-16T03:20:07;12.90;99.90
13446;DHT22;6795;51.232;3.764;2022-10-16T03:22:36;12.90;99.90
13446;DHT22;6795;51.232;3.764;2022-10-16T03:25:05;12.90;99.90
13446;DHT22;6795;51.232;3.764;2022-10-16T03:27:33;12.90;99.90
13446;DHT22;6795;51.232;3.764;2022-10-16T03:30:15;12.80;99.90
13446;DHT22;6795;51.232;3.764;2022-10-16T03:32:54;12.80;99.90
13446;DHT22;6795;51.232;3.764;2022-10-16T03:35:23;12.90;99.90
13446;DHT22;6795;51.232;3.764;2022-10-16T03:37:52;12.90;99.90
13446;DHT22;6795;51.232;3.764;2022-10-16T03:40:20;12.80;99.90
13446;DHT22;6795;51.232;3.764;2022-10-16T03:42:48;12.80;99.90
13446;DHT22;6795;51.232;3.764;2022-10-16T03:45:18;12.80;99.90
13446;DHT22;6795;51.232;3.764;2022-10-16T03:47:47;12.80;99.90
13446;DHT22;6795;51.232;3.764;2022-10-16T03:50:16;12.70;99.90
13446;DHT22;6795;51.232;3.764;2022-10-16T03:52:45;12.80;99.90
13446;DHT22;6795;51.232;3.764;2022-10-16T03:55:13;12.70;99.90
13446;DHT22;6795;51.232;3.764;2022-10-16T03:57:42;12.70;99.90
13446;DHT22;6795;51.232;3.764;2022-10-16T04:00:11;12.70;99.90
13446;DHT22;6795;51.232;3.764;2022-10-16T04:02:40;12.70;99.90
13446;DHT22;6795;51.232;3.764;2022-10-16T04:05:08;12.60;99.90
13446;DHT22;6795;51.232;3.764;2022-10-16T04:07:38;12.60;99.90
13446;DHT22;6795;51.232;3.764;2022-10-16T04:10:07;12.60;99.90
13446;DHT22;6795;51.232;3.764;2022-10-16T04:12:36;12.40;99.90
13446;DHT22;6795;51.232;3.764;2022-10-16T04:15:04;12.50;99.90
13446;DHT22;6795;51.232;3.764;2022-10-16T04:17:33;12.40;99.90
13446;DHT22;6795;51.232;3.764;2022-10-16T04:20:01;12.40;99.90
13446;DHT22;6795;51.232;3.764;2022-10-16T04:22:30;12.40;99.90
13446;DHT22;6795;51.232;3.764;2022-10-16T04:25:00;12.40;99.90
13446;DHT22;6795;51.232;3.764;2022-10-16T04:27:28;12.40;99.90
13446;DHT22;6795;51.232;3.764;2022-10-16T04:29:58;12.50;99.90
13446;DHT22;6795;51.232;3.764;2022-10-16T04:32:32;12.50;99.90
13446;DHT22;6795;51.232;3.764;2022-10-16T04:35:18;12.50;99.90
13446;DHT22;6795;51.232;3.764;2022-10-16T04:37:47;12.50;99.90
13446;DHT22;6795;51.232;3.764;2022-10-16T04:40:17;12.60;99.90
13446;DHT22;6795;51.232;3.764;2022-10-16T04:42:45;12.60;99.90
13446;DHT22;6795;51.232;3.764;2022-10-16T04:45:13;12.60;99.90
13446;DHT22;6795;51.232;3.764;2022-10-16T04:47:43;12.50;99.90
13446;DHT22;6795;51.232;3.764;2022-10-16T04:50:11;12.50;99.90
13446;DHT22;6795;51.232;3.764;2022-10-16T04:52:40;12.40;99.90
13446;DHT22;6795;51.232;3.764;2022-10-16T04:55:08;12.60;99.90
13446;DHT22;6795;51.232;3.764;2022-10-16T04:57:38;12.60;99.90
13446;DHT22;6795;51.232;3.764;2022-10-16T05:00:07;12.60;99.90
13446;DHT22;6795;51.232;3.764;2022-10-16T05:02:36;12.60;99.90
13446;DHT22;6795;51.232;3.764;2022-10-16T05:05:05;12.50;99.90
13446;DHT22;6795;51.232;3.764;2022-10-16T05:07:34;12.40;99.90
13446;DHT22;6795;51.232;3.764;2022-10-16T05:10:03;12.40;99.90
13446;DHT22;6795;51.232;3.764;2022-10-16T05:12:31;12.30;99.90
13446;DHT22;6795;51.232;3.764;2022-10-16T05:15:01;12.30;99.90
13446;DHT22;6795;51.232;3.764;2022-10-16T05:17:30;12.40;99.90
13446;DHT22;6795;51.232;3.764;2022-10-16T05:19:59;12.50;99.90
13446;DHT22;6795;51.232;3.764;2022-10-16T05:22:27;12.60;99.90
13446;DHT22;6795;51.232;3.764;2022-10-16T05:25:16;12.70;99.90
13446;DHT22;6795;51.232;3.764;2022-10-16T05:28:49;12.80;99.90
13446;DHT22;6795;51.232;3.764;2022-10-16T05:32:10;12.80;99.90
13446;DHT22;6795;51.232;3.764;2022-10-16T05:35:36;12.90;99.90
13446;DHT22;6795;51.232;3.764;2022-10-16T05:38:59;12.90;99.90
13446;DHT22;6795;51.232;3.764;2022-10-16T05:42:37;12.90;99.90
13446;DHT22;6795;51.232;3.764;2022-10-16T05:46:10;12.90;99.90
13446;DHT22;6795;51.232;3.764;2022-10-16T05:49:21;12.80;99.90
13446;DHT22;6795;51.232;3.764;2022-10-16T05:52:51;12.70;99.90
13446;DHT22;6795;51.232;3.764;2022-10-16T05:57:30;12.70;99.90
13446;DHT22;6795;51.232;3.764;2022-10-16T05:59:40;12.60;99.90
13446;DHT22;6795;51.232;3.764;2022-10-16T06:02:24;12.60;99.90
13446;DHT22;6795;51.232;3.764;2022-10-16T06:05:57;12.70;99.90
13446;DHT22;6795;51.232;3.764;2022-10-16T06:09:06;12.60;99.90
13446;DHT22;6795;51.232;3.764;2022-10-16T06:12:11;12.60;99.90
13446;DHT22;6795;51.232;3.764;2022-10-16T06:14:46;12.50;99.90
13446;DHT22;6795;51.232;3.764;2022-10-16T06:17:15;12.50;99.90
13446;DHT22;6795;51.232;3.764;2022-10-16T06:19:43;12.50;99.90
13446;DHT22;6795;51.232;3.764;2022-10-16T06:22:13;12.60;99.90
13446;DHT22;6795;51.232;3.764;2022-10-16T06:24:41;12.70;99.90
13446;DHT22;6795;51.232;3.764;2022-10-16T06:27:10;12.80;99.90
13446;DHT22;6795;51.232;3.764;2022-10-16T06:29:38;12.90;99.90
13446;DHT22;6795;51.232;3.764;2022-10-16T06:32:06;13.00;99.90
13446;DHT22;6795;51.232;3.764;2022-10-16T06:34:35;13.00;99.90
13446;DHT22;6795;51.232;3.764;2022-10-16T06:37:09;13.10;99.90
13446;DHT22;6795;51.232;3.764;2022-10-16T06:39:38;13.20;99.90
13446;DHT22;6795;51.232;3.764;2022-10-16T06:42:07;13.30;99.90
13446;DHT22;6795;51.232;3.764;2022-10-16T06:44:35;13.20;99.90
13446;DHT22;6795;51.232;3.764;2022-10-16T06:47:03;13.30;99.90
13446;DHT22;6795;51.232;3.764;2022-10-16T06:49:32;13.30;99.90
13446;DHT22;6795;51.232;3.764;2022-10-16T06:52:00;13.30;99.90
13446;DHT22;6795;51.232;3.764;2022-10-16T06:54:29;13.30;99.90
13446;DHT22;6795;51.232;3.764;2022-10-16T06:57:09;13.30;99.90
13446;DHT22;6795;51.232;3.764;2022-10-16T06:59:38;13.50;99.90
13446;DHT22;6795;51.232;3.764;2022-10-16T07:02:11;13.60;99.90
13446;DHT22;6795;51.232;3.764;2022-10-16T07:05:10;13.70;99.90
13446;DHT22;6795;51.232;3.764;2022-10-16T07:08:09;13.70;99.90
13446;DHT22;6795;51.232;3.764;2022-10-16T07:11:31;13.60;99.90
13446;DHT22;6795;51.232;3.764;2022-10-16T07:15:04;13.80;99.90
13446;DHT22;6795;51.232;3.764;2022-10-16T07:18:26;13.90;99.90
13446;DHT22;6795;51.232;3.764;2022-10-16T07:21:52;14.10;99.90
13446;DHT22;6795;51.232;3.764;2022-10-16T07:25:06;14.10;99.90
13446;DHT22;6795;51.232;3.764;2022-10-16T07:28:25;14.20;99.90
13446;DHT22;6795;51.232;3.764;2022-10-16T07:31:44;14.30;99.90
13446;DHT22;6795;51.232;3.764;2022-10-16T07:34:56;14.40;99.90
13446;DHT22;6795;51.232;3.764;2022-10-16T07:38:22;14.40;99.90
13446;DHT22;6795;51.232;3.764;2022-10-16T07:41:29;14.50;99.90
13446;DHT22;6795;51.232;3.764;2022-10-16T07:44:35;14.70;99.90
13446;DHT22;6795;51.232;3.764;2022-10-16T07:48:33;14.70;99.90
13446;DHT22;6795;51.232;3.764;2022-10-16T07:51:29;14.90;99.90
13446;DHT22;6795;51.232;3.764;2022-10-16T07:54:57;15.00;99.90
13446;DHT22;6795;51.232;3.764;2022-10-16T08:00:19;15.00;99.90
13446;DHT22;6795;51.232;3.764;2022-10-16T08:01:58;15.20;99.90
13446;DHT22;6795;51.232;3.764;2022-10-16T08:05:20;15.40;99.90
13446;DHT22;6795;51.232;3.764;2022-10-16T08:08:34;15.50;99.90
13446;DHT22;6795;51.232;3.764;2022-10-16T08:11:35;15.50;99.90
13446;DHT22;6795;51.232;3.764;2022-10-16T08:15:35;15.60;99.90
13446;DHT22;6795;51.232;3.764;2022-10-16T08:18:47;15.70;99.90
13446;DHT22;6795;51.232;3.764;2022-10-16T08:22:31;15.80;99.90
13446;DHT22;6795;51.232;3.764;2022-10-16T08:26:09;16.00;99.90
13446;DHT22;6795;51.232;3.764;2022-10-16T08:29:28;16.20;99.90
13446;DHT22;6795;51.232;3.764;2022-10-16T08:33:03;16.20;99.90
13446;DHT22;6795;51.232;3.764;2022-10-16T08:36:11;16.10;99.90
13446;DHT22;6795;51.232;3.764;2022-10-16T08:39:20;16.20;99.90
13446;DHT22;6795;51.232;3.764;2022-10-16T08:42:40;16.50;99.90
13446;DHT22;6795;51.232;3.764;2022-10-16T08:46:28;16.80;99.90
13446;DHT22;6795;51.232;3.764;2022-10-16T08:49:50;17.00;99.90
13446;DHT22;6795;51.232;3.764;2022-10-16T08:53:30;17.20;99.90
13446;DHT22;6795;51.232;3.764;2022-10-16T08:57:07;17.30;99.90
13446;DHT22;6795;51.232;3.764;2022-10-16T09:00:35;17.30;99.90
13446;DHT22;6795;51.232;3.764;2022-10-16T09:07:45;17.60;99.90
13446;DHT22;6795;51.232;3.764;2022-10-16T09:11:01;17.80;99.90
13446;DHT22;6795;51.232;3.764;2022-10-16T09:17:55;18.10;99.90
13446;DHT22;6795;51.232;3.764;2022-10-16T09:21:05;18.30;99.90
13446;DHT22;6795;51.232;3.764;2022-10-16T09:24:23;18.30;99.90
13446;DHT22;6795;51.232;3.764;2022-10-16T09:27:43;18.20;99.90
13446;DHT22;6795;51.232;3.764;2022-10-16T09:31:51;18.30;99.90
13446;DHT22;6795;51.232;3.764;2022-10-16T09:35:17;18.30;99.90
13446;DHT22;6795;51.232;3.764;2022-10-16T09:37:49;18.30;99.90
13446;DHT22;6795;51.232;3.764;2022-10-16T09:40:26;18.10;99.90
13446;DHT22;6795;51.232;3.764;2022-10-16T09:43:01;18.20;99.90
13446;DHT22;6795;51.232;3.764;2022-10-16T09:45:30;18.50;99.90
13446;DHT22;6795;51.232;3.764;2022-10-16T09:48:01;18.80;99.90
13446;DHT22;6795;51.232;3.764;2022-10-16T09:50:38;18.80;99.90
13446;DHT22;6795;51.232;3.764;2022-10-16T09:53:11;18.80;99.90
13446;DHT22;6795;51.232;3.764;2022-10-16T09:55:50;18.90;99.90
13446;DHT22;6795;51.232;3.764;2022-10-16T09:58:21;19.20;99.90
13446;DHT22;6795;51.232;3.764;2022-10-16T10:01:26;19.20;99.90
13446;DHT22;6795;51.232;3.764;2022-10-16T10:05:02;19.10;99.90
13446;DHT22;6795;51.232;3.764;2022-10-16T10:08:32;19.40;99.90
13446;DHT22;6795;51.232;3.764;2022-10-16T10:15:30;19.50;99.90
13446;DHT22;6795;51.232;3.764;2022-10-16T10:19:02;19.80;99.90
13446;DHT22;6795;51.232;3.764;2022-10-16T10:26:26;19.90;99.90
13446;DHT22;6795;51.232;3.764;2022-10-16T10:29:58;19.90;99.90
13446;DHT22;6795;51.232;3.764;2022-10-16T10:36:55;20.40;99.90
13446;DHT22;6795;51.232;3.764;2022-10-16T10:40:11;21.10;99.90
13446;DHT22;6795;51.232;3.764;2022-10-16T10:43:46;21.50;99.90
13446;DHT22;6795;51.232;3.764;2022-10-16T10:47:21;21.60;99.90
13446;DHT22;6795;51.232;3.764;2022-10-16T10:51:10;21.40;99.90
13446;DHT22;6795;51.232;3.764;2022-10-16T10:55:00;21.60;99.90
13446;DHT22;6795;51.232;3.764;2022-10-16T10:58:34;21.70;99.90
13446;DHT22;6795;51.232;3.764;2022-10-16T11:01:56;22.00;99.90
13446;DHT22;6795;51.232;3.764;2022-10-16T11:09:07;21.90;99.90
13446;DHT22;6795;51.232;3.764;2022-10-16T11:16:02;21.80;99.90
13446;DHT22;6795;51.232;3.764;2022-10-16T11:19:38;21.80;99.90
13446;DHT22;6795;51.232;3.764;2022-10-16T11:22:54;21.90;99.90
13446;DHT22;6795;51.232;3.764;2022-10-16T11:26:08;21.70;99.90
13446;DHT22;6795;51.232;3.764;2022-10-16T11:29:32;21.60;99.90
13446;DHT22;6795;51.232;3.764;2022-10-16T11:32:13;22.10;99.90
13446;DHT22;6795;51.232;3.764;2022-10-16T11:34:47;22.10;99.90
13446;DHT22;6795;51.232;3.764;2022-10-16T11:37:19;21.90;99.90
13446;DHT22;6795;51.232;3.764;2022-10-16T11:39:50;21.80;99.90
13446;DHT22;6795;51.232;3.764;2022-10-16T11:42:29;22.00;99.90
13446;DHT22;6795;51.232;3.764;2022-10-16T11:45:02;21.80;99.90
13446;DHT22;6795;51.232;3.764;2022-10-16T11:47:41;21.80;99.90
13446;DHT22;6795;51.232;3.764;2022-10-16T11:50:29;21.90;99.90
13446;DHT22;6795;51.232;3.764;2022-10-16T11:53:03;21.50;99.90
13446;DHT22;6795;51.232;3.764;2022-10-16T11:55:35;21.10;99.90
13446;DHT22;6795;51.232;3.764;2022-10-16T11:58:19;21.20;99.90
13446;DHT22;6795;51.232;3.764;2022-10-16T12:00:56;21.10;99.90
13446;DHT22;6795;51.232;3.764;2022-10-16T12:03:30;21.20;99.90
13446;DHT22;6795;51.232;3.764;2022-10-16T12:06:24;21.10;99.90
13446;DHT22;6795;51.232;3.764;2022-10-16T12:09:49;21.10;99.90
13446;DHT22;6795;51.232;3.764;2022-10-16T12:12:56;21.90;99.90
13446;DHT22;6795;51.232;3.764;2022-10-16T12:16:25;22.60;99.90
13446;DHT22;6795;51.232;3.764;2022-10-16T12:20:18;23.20;99.90
13446;DHT22;6795;51.232;3.764;2022-10-16T12:23:30;23.00;99.90
13446;DHT22;6795;51.232;3.764;2022-10-16T12:26:41;22.70;99.90
13446;DHT22;6795;51.232;3.764;2022-10-16T12:30:35;23.00;99.90
13446;DHT22;6795;51.232;3.764;2022-10-16T12:37:26;23.10;99.90
13446;DHT22;6795;51.232;3.764;2022-10-16T12:40:41;22.80;99.90
13446;DHT22;6795;51.232;3.764;2022-10-16T12:43:55;22.50;99.90
13446;DHT22;6795;51.232;3.764;2022-10-16T12:47:18;21.80;99.90
13446;DHT22;6795;51.232;3.764;2022-10-16T12:50:40;21.50;99.90
13446;DHT22;6795;51.232;3.764;2022-10-16T12:54:16;21.70;99.90
13446;DHT22;6795;51.232;3.764;2022-10-16T12:57:53;22.20;99.90
13446;DHT22;6795;51.232;3.764;2022-10-16T13:01:34;23.00;99.90
13446;DHT22;6795;51.232;3.764;2022-10-16T13:16:38;22.60;99.90
13446;DHT22;6795;51.232;3.764;2022-10-16T13:19:57;22.90;99.90
13446;DHT22;6795;51.232;3.764;2022-10-16T13:23:27;22.90;99.90
13446;DHT22;6795;51.232;3.764;2022-10-16T13:26:53;22.70;99.90
13446;DHT22;6795;51.232;3.764;2022-10-16T13:30:14;22.20;99.90
13446;DHT22;6795;51.232;3.764;2022-10-16T13:37:15;21.20;99.90
13446;DHT22;6795;51.232;3.764;2022-10-16T13:40:47;21.00;99.90
13446;DHT22;6795;51.232;3.764;2022-10-16T13:43:59;20.70;99.90
13446;DHT22;6795;51.232;3.764;2022-10-16T13:47:29;20.50;99.90
13446;DHT22;6795;51.232;3.764;2022-10-16T13:51:34;20.40;99.90
13446;DHT22;6795;51.232;3.764;2022-10-16T13:53:59;20.40;99.90
13446;DHT22;6795;51.232;3.764;2022-10-16T13:57:30;20.40;99.90
13446;DHT22;6795;51.232;3.764;2022-10-16T14:00:40;20.80;99.90
13446;DHT22;6795;51.232;3.764;2022-10-16T14:04:02;20.70;99.90
13446;DHT22;6795;51.232;3.764;2022-10-16T14:07:47;20.40;99.90
13446;DHT22;6795;51.232;3.764;2022-10-16T14:10:59;20.20;99.90
13446;DHT22;6795;51.232;3.764;2022-10-16T14:14:18;20.10;99.90
13446;DHT22;6795;51.232;3.764;2022-10-16T14:17:45;19.90;99.90
13446;DHT22;6795;51.232;3.764;2022-10-16T14:21:03;19.80;99.90
13446;DHT22;6795;51.232;3.764;2022-10-16T14:25:15;19.70;99.90
13446;DHT22;6795;51.232;3.764;2022-10-16T14:28:15;19.60;99.90
13446;DHT22;6795;51.232;3.764;2022-10-16T14:31:35;19.50;99.90
13446;DHT22;6795;51.232;3.764;2022-10-16T14:35:31;19.30;99.90
13446;DHT22;6795;51.232;3.764;2022-10-16T14:38:52;19.20;99.90
13446;DHT22;6795;51.232;3.764;2022-10-16T14:46:15;19.00;99.90
13446;DHT22;6795;51.232;3.764;2022-10-16T14:49:36;18.90;99.90
13446;DHT22;6795;51.232;3.764;2022-10-16T14:52:48;18.80;99.90
13446;DHT22;6795;51.232;3.764;2022-10-16T14:56:07;18.80;99.90
13446;DHT22;6795;51.232;3.764;2022-10-16T14:59:53;18.70;99.90
13446;DHT22;6795;51.232;3.764;2022-10-16T15:03:34;18.70;99.90
13446;DHT22;6795;51.232;3.764;2022-10-16T15:07:20;18.70;99.90
13446;DHT22;6795;51.232;3.764;2022-10-16T15:10:46;18.70;99.90
13446;DHT22;6795;51.232;3.764;2022-10-16T15:14:14;18.50;99.90
13446;DHT22;6795;51.232;3.764;2022-10-16T15:18:06;18.40;99.90
13446;DHT22;6795;51.232;3.764;2022-10-16T15:21:39;18.40;99.90
13446;DHT22;6795;51.232;3.764;2022-10-16T15:24:43;18.30;99.90
13446;DHT22;6795;51.232;3.764;2022-10-16T15:28:16;18.20;99.90
13446;DHT22;6795;51.232;3.764;2022-10-16T15:31:31;18.10;99.90
13446;DHT22;6795;51.232;3.764;2022-10-16T15:35:00;18.10;99.90
13446;DHT22;6795;51.232;3.764;2022-10-16T15:38:23;18.00;99.90
13446;DHT22;6795;51.232;3.764;2022-10-16T15:41:34;17.90;99.90
13446;DHT22;6795;51.232;3.764;2022-10-16T15:44:58;17.80;99.90
13446;DHT22;6795;51.232;3.764;2022-10-16T15:47:59;17.80;99.90
13446;DHT22;6795;51.232;3.764;2022-10-16T15:51:24;17.70;99.90
13446;DHT22;6795;51.232;3.764;2022-10-16T15:54:54;17.70;99.90
13446;DHT22;6795;51.232;3.764;2022-10-16T15:57:40;17.70;99.90
13446;DHT22;6795;51.232;3.764;2022-10-16T16:00:12;17.60;99.90
13446;DHT22;6795;51.232;3.764;2022-10-16T16:02:41;17.60;99.90
13446;DHT22;6795;51.232;3.764;2022-10-16T16:05:11;17.40;99.90
13446;DHT22;6795;51.232;3.764;2022-10-16T16:07:49;17.30;99.90
13446;DHT22;6795;51.232;3.764;2022-10-16T16:11:29;17.20;99.90
13446;DHT22;6795;51.232;3.764;2022-10-16T16:14:54;17.00;99.90
13446;DHT22;6795;51.232;3.764;2022-10-16T16:18:15;16.90;99.90
13446;DHT22;6795;51.232;3.764;2022-10-16T16:21:42;16.80;99.90
13446;DHT22;6795;51.232;3.764;2022-10-16T16:25:08;16.70;99.90
13446;DHT22;6795;51.232;3.764;2022-10-16T16:29:02;16.60;99.90
13446;DHT22;6795;51.232;3.764;2022-10-16T16:32:03;16.60;99.90
13446;DHT22;6795;51.232;3.764;2022-10-16T16:35:21;16.60;99.90
13446;DHT22;6795;51.232;3.764;2022-10-16T16:38:18;16.50;99.90
13446;DHT22;6795;51.232;3.764;2022-10-16T16:42:04;16.40;99.90
13446;DHT22;6795;51.232;3.764;2022-10-16T16:45:23;16.20;99.90
13446;DHT22;6795;51.232;3.764;2022-10-16T16:48:23;16.10;99.90
13446;DHT22;6795;51.232;3.764;2022-10-16T16:51:44;15.90;99.90
13446;DHT22;6795;51.232;3.764;2022-10-16T16:55:09;15.80;99.90
13446;DHT22;6795;51.232;3.764;2022-10-16T16:58:14;15.80;99.90
13446;DHT22;6795;51.232;3.764;2022-10-16T17:01:27;15.80;99.90
13446;DHT22;6795;51.232;3.764;2022-10-16T17:04:33;15.80;99.90
13446;DHT22;6795;51.232;3.764;2022-10-16T17:07:44;15.80;99.90
13446;DHT22;6795;51.232;3.764;2022-10-16T17:11:13;15.80;99.90
13446;DHT22;6795;51.232;3.764;2022-10-16T17:15:13;15.70;99.90
13446;DHT22;6795;51.232;3.764;2022-10-16T17:18:02;15.50;99.90
13446;DHT22;6795;51.232;3.764;2022-10-16T17:21:16;15.50;99.90
13446;DHT22;6795;51.232;3.764;2022-10-16T17:24:30;15.40;99.90
13446;DHT22;6795;51.232;3.764;2022-10-16T17:27:52;15.40;99.90
13446;DHT22;6795;51.232;3.764;2022-10-16T17:35:59;15.40;99.90
13446;DHT22;6795;51.232;3.764;2022-10-16T17:39:21;15.40;99.90
13446;DHT22;6795;51.232;3.764;2022-10-16T17:42:30;15.30;99.90
13446;DHT22;6795;51.232;3.764;2022-10-16T17:45:46;15.20;99.90
13446;DHT22;6795;51.232;3.764;2022-10-16T17:49:00;15.30;99.90
13446;DHT22;6795;51.232;3.764;2022-10-16T17:52:14;15.20;99.90
13446;DHT22;6795;51.232;3.764;2022-10-16T17:57:02;15.30;99.90
13446;DHT22;6795;51.232;3.764;2022-10-16T17:58:55;15.50;99.90
13446;DHT22;6795;51.232;3.764;2022-10-16T18:02:23;15.60;99.90
13446;DHT22;6795;51.232;3.764;2022-10-16T18:05:26;15.60;99.90
13446;DHT22;6795;51.232;3.764;2022-10-16T18:08:51;15.40;99.90
13446;DHT22;6795;51.232;3.764;2022-10-16T18:12:46;15.40;99.90
13446;DHT22;6795;51.232;3.764;2022-10-16T18:16:13;15.30;99.90
13446;DHT22;6795;51.232;3.764;2022-10-16T18:19:58;15.40;99.90
13446;DHT22;6795;51.232;3.764;2022-10-16T18:23:22;15.30;99.90
13446;DHT22;6795;51.232;3.764;2022-10-16T18:26:37;15.40;99.90
13446;DHT22;6795;51.232;3.764;2022-10-16T18:29:57;15.50;99.90
13446;DHT22;6795;51.232;3.764;2022-10-16T18:36:31;15.40;99.90
13446;DHT22;6795;51.232;3.764;2022-10-16T18:39:52;15.40;99.90
13446;DHT22;6795;51.232;3.764;2022-10-16T18:43:46;15.40;99.90
13446;DHT22;6795;51.232;3.764;2022-10-16T18:47:32;15.60;99.90
13446;DHT22;6795;51.232;3.764;2022-10-16T18:54:24;15.60;99.90
13446;DHT22;6795;51.232;3.764;2022-10-16T18:57:33;15.70;99.90
13446;DHT22;6795;51.232;3.764;2022-10-16T19:01:11;15.70;99.90
13446;DHT22;6795;51.232;3.764;2022-10-16T19:04:12;15.70;99.90
13446;DHT22;6795;51.232;3.764;2022-10-16T19:07:25;15.70;99.90
13446;DHT22;6795;51.232;3.764;2022-10-16T19:10:54;15.70;99.90
13446;DHT22;6795;51.232;3.764;2022-10-16T19:14:16;15.70;99.90
13446;DHT22;6795;51.232;3.764;2022-10-16T19:17:47;15.80;99.90
13446;DHT22;6795;51.232;3.764;2022-10-16T19:21:06;15.80;99.90
13446;DHT22;6795;51.232;3.764;2022-10-16T19:24:16;15.80;99.90
13446;DHT22;6795;51.232;3.764;2022-10-16T19:27:27;15.80;99.90
13446;DHT22;6795;51.232;3.764;2022-10-16T19:30:56;15.80;99.90
13446;DHT22;6795;51.232;3.764;2022-10-16T19:41:58;15.90;99.90
13446;DHT22;6795;51.232;3.764;2022-10-16T19:45:07;15.90;99.90
13446;DHT22;6795;51.232;3.764;2022-10-16T19:48:28;15.90;99.90
13446;DHT22;6795;51.232;3.764;2022-10-16T19:51:33;15.90;99.90
13446;DHT22;6795;51.232;3.764;2022-10-16T19:54:47;15.90;99.90
13446;DHT22;6795;51.232;3.764;2022-10-16T19:58:18;15.90;99.90
13446;DHT22;6795;51.232;3.764;2022-10-16T20:01:52;16.00;99.90
13446;DHT22;6795;51.232;3.764;2022-10-16T20:05:23;16.00;99.90
13446;DHT22;6795;51.232;3.764;2022-10-16T20:09:06;16.00;99.90
13446;DHT22;6795;51.232;3.764;2022-10-16T20:12:13;16.00;99.90
13446;DHT22;6795;51.232;3.764;2022-10-16T20:15:25;16.00;99.90
13446;DHT22;6795;51.232;3.764;2022-10-16T20:18:52;16.00;99.90
13446;DHT22;6795;51.232;3.764;2022-10-16T20:21:52;16.00;99.90